Time;durP1;ratioP1;P1;durP2;ratioP2;P2;SDS_P1;SDS_P2;PMS_P1;PMS_P2;Temp;Humidity;BMP_temperature;BMP_pressure;BME280_temperature;BME280_humidity;BME280_pressure;Samples;Min_cycle;Max_cycle;Signal;HPM_P1;HPM_P2
2023/09/18 00:01:19;;;;;;;4.03;1.50;;;14.30;99.90;;;;;;4964414;28;20247;-85
2023/09/18 00:03:47;;;;;;;3.60;1.70;;;14.30;99.90;;;;;;4936849;28;20321;-85
2023/09/18 00:06:15;;;;;;;3.25;1.50;;;14.20;99.90;;;;;;4964654;28;20725;-86
2023/09/18 00:08:43;;;;;;;5.20;1.40;;;14.10;99.90;;;;;;4947131;28;20196;-84
2023/09/18 00:11:11;;;;;;;3.35;1.42;;;13.90;99.90;;;;;;4956399;28;20319;-84
2023/09/18 00:13:39;;;;;;;2.55;1.50;;;14.00;99.90;;;;;;4947111;28;20874;-85
2023/09/18 00:16:06;;;;;;;3.95;1.52;;;14.00;99.90;;;;;;4946994;28;20259;-85
2023/09/18 00:18:34;;;;;;;3.55;1.35;;;14.10;99.90;;;;;;4936436;28;20197;-85
2023/09/18 00:21:02;;;;;;;3.38;1.52;;;13.90;99.90;;;;;;4963943;28;20270;-84
2023/09/18 00:23:30;;;;;;;3.25;1.60;;;14.00;99.90;;;;;;4952841;28;20191;-84
2023/09/18 00:25:57;;;;;;;2.10;1.40;;;14.10;99.90;;;;;;4942406;28;20196;-85
2023/09/18 00:28:25;;;;;;;2.33;1.42;;;14.10;99.90;;;;;;4949225;28;20287;-85
2023/09/18 00:30:53;;;;;;;4.68;1.80;;;14.20;99.90;;;;;;4962158;28;20211;-85
2023/09/18 00:33:20;;;;;;;2.88;1.70;;;14.10;99.90;;;;;;4944692;28;20706;-85
2023/09/18 00:35:49;;;;;;;2.28;1.08;;;14.20;99.90;;;;;;4953629;28;20184;-85
2023/09/18 00:38:18;;;;;;;4.20;1.48;;;14.00;99.90;;;;;;4944512;28;20193;-86
2023/09/18 00:40:46;;;;;;;2.63;1.52;;;13.90;99.90;;;;;;4952511;28;20354;-85
2023/09/18 00:43:14;;;;;;;4.93;1.42;;;13.80;99.90;;;;;;4945075;28;20618;-84
2023/09/18 00:45:47;;;;;;;2.45;1.58;;;13.80;99.90;;;;;;4954705;28;20208;-85
2023/09/18 00:48:16;;;;;;;2.05;1.20;;;13.90;99.90;;;;;;4952551;28;20184;-85
2023/09/18 00:50:44;;;;;;;1.70;1.13;;;13.70;99.90;;;;;;4941411;28;20200;-85
2023/09/18 00:53:20;;;;;;;2.60;1.50;;;13.60;99.90;;;;;;4960699;28;20270;-85
2023/09/18 00:55:49;;;;;;;3.85;1.25;;;13.70;99.90;;;;;;4961300;28;20250;-83
2023/09/18 00:58:16;;;;;;;3.38;1.40;;;13.70;99.90;;;;;;4939923;28;20189;-85
2023/09/18 01:00:44;;;;;;;3.78;1.40;;;13.60;99.90;;;;;;4958709;28;20651;-85
2023/09/18 01:03:12;;;;;;;2.53;1.45;;;13.50;99.90;;;;;;4943797;28;20631;-84
2023/09/18 01:05:40;;;;;;;1.70;1.05;;;13.50;99.90;;;;;;4943399;28;20227;-85
2023/09/18 01:08:07;;;;;;;2.55;0.77;;;13.50;99.90;;;;;;4961674;28;20184;-85
2023/09/18 01:10:48;;;;;;;1.92;1.00;;;13.50;99.90;;;;;;4958488;28;20192;-85
2023/09/18 01:13:24;;;;;;;3.65;1.30;;;13.50;99.90;;;;;;4961290;28;20200;-83
2023/09/18 01:15:57;;;;;;;1.83;0.90;;;13.40;99.90;;;;;;4960930;28;20202;-84
2023/09/18 01:18:25;;;;;;;2.03;1.23;;;13.30;99.90;;;;;;4961582;28;20866;-85
2023/09/18 01:20:53;;;;;;;1.30;1.02;;;13.10;99.90;;;;;;4953180;28;20201;-84
2023/09/18 01:23:21;;;;;;;1.48;1.10;;;13.20;99.90;;;;;;4953001;28;20239;-84
2023/09/18 01:25:49;;;;;;;1.90;1.05;;;13.30;99.90;;;;;;4945036;28;20202;-85
2023/09/18 01:28:17;;;;;;;2.75;1.27;;;13.30;99.90;;;;;;4955019;28;20730;-85
2023/09/18 01:30:44;;;;;;;4.45;1.25;;;13.10;99.90;;;;;;4962868;28;20851;-85
2023/09/18 01:33:13;;;;;;;2.13;1.10;;;13.10;99.90;;;;;;4962601;28;20192;-86
2023/09/18 01:35:42;;;;;;;3.70;1.35;;;13.00;99.90;;;;;;4963289;28;20674;-84
2023/09/18 01:38:11;;;;;;;1.38;1.20;;;13.10;99.90;;;;;;4959696;28;20300;-84
2023/09/18 01:40:40;;;;;;;2.83;1.05;;;12.90;99.90;;;;;;4930803;28;20639;-85
2023/09/18 01:43:08;;;;;;;2.25;0.98;;;13.00;99.90;;;;;;4945126;28;20235;-84
2023/09/18 01:45:37;;;;;;;2.17;1.20;;;13.10;99.90;;;;;;4943463;28;20196;-86
2023/09/18 01:48:06;;;;;;;1.98;1.10;;;13.10;99.90;;;;;;4937311;28;20294;-84
2023/09/18 01:50:36;;;;;;;1.38;0.95;;;13.00;99.90;;;;;;4960696;28;20214;-84
2023/09/18 01:53:03;;;;;;;2.78;1.23;;;13.10;99.90;;;;;;4934267;29;20663;-84
2023/09/18 01:55:32;;;;;;;3.00;1.00;;;13.00;99.90;;;;;;4962773;28;20199;-85
2023/09/18 01:58:00;;;;;;;1.58;0.98;;;12.80;99.90;;;;;;4945333;28;20243;-85
2023/09/18 02:00:28;;;;;;;3.08;0.88;;;12.90;99.90;;;;;;4943734;28;20677;-85
2023/09/18 02:02:57;;;;;;;2.95;0.90;;;12.80;99.90;;;;;;4942726;28;20596;-84
2023/09/18 02:05:33;;;;;;;3.22;0.80;;;12.70;99.90;;;;;;4951366;28;20220;-85
2023/09/18 02:08:02;;;;;;;1.98;1.00;;;12.80;99.90;;;;;;4935517;28;20278;-85
2023/09/18 02:10:31;;;;;;;3.17;1.25;;;12.90;99.90;;;;;;4942445;29;20201;-85
2023/09/18 02:12:59;;;;;;;2.65;1.00;;;12.80;99.90;;;;;;4939451;29;20208;-86
2023/09/18 02:15:31;;;;;;;2.30;0.98;;;12.70;99.90;;;;;;4936240;28;20285;-86
2023/09/18 02:17:58;;;;;;;2.22;0.90;;;12.80;99.90;;;;;;4943379;28;20217;-85
2023/09/18 02:20:26;;;;;;;2.80;1.00;;;12.80;99.90;;;;;;4965764;28;20196;-84
2023/09/18 02:22:53;;;;;;;2.08;0.93;;;12.70;99.90;;;;;;4945140;28;20927;-84
2023/09/18 02:25:21;;;;;;;1.77;1.00;;;12.80;99.90;;;;;;4929084;28;20683;-84
2023/09/18 02:27:49;;;;;;;1.33;0.93;;;12.90;99.90;;;;;;4951894;28;20207;-84
2023/09/18 02:30:19;;;;;;;1.70;0.80;;;12.90;99.90;;;;;;4943849;28;20197;-84
2023/09/18 02:32:46;;;;;;;3.38;1.10;;;12.80;99.90;;;;;;4944102;28;20222;-84
2023/09/18 02:35:14;;;;;;;1.50;0.80;;;12.70;99.90;;;;;;4948125;28;20208;-84
2023/09/18 02:37:42;;;;;;;1.20;0.70;;;12.50;99.90;;;;;;4961956;28;20190;-84
2023/09/18 02:40:10;;;;;;;1.55;0.90;;;12.40;99.90;;;;;;4959776;28;20189;-85
2023/09/18 02:42:38;;;;;;;2.00;0.90;;;12.50;99.90;;;;;;4962161;28;20274;-84
2023/09/18 02:45:08;;;;;;;1.30;0.70;;;12.60;99.90;;;;;;4943859;28;20238;-84
2023/09/18 02:47:37;;;;;;;1.42;0.90;;;12.50;99.90;;;;;;4960183;28;20191;-84
2023/09/18 02:50:06;;;;;;;2.10;0.85;;;12.70;99.90;;;;;;4952454;28;20287;-84
2023/09/18 02:52:33;;;;;;;1.27;0.82;;;12.70;99.90;;;;;;4951611;28;20207;-84
2023/09/18 02:55:01;;;;;;;1.83;0.60;;;12.70;99.90;;;;;;4948328;28;20207;-84
2023/09/18 02:57:28;;;;;;;1.30;0.77;;;12.60;99.90;;;;;;4965151;28;20537;-84
2023/09/18 02:59:56;;;;;;;1.33;0.80;;;12.50;99.90;;;;;;4942206;29;20283;-84
2023/09/18 03:02:24;;;;;;;2.25;0.70;;;12.70;99.90;;;;;;4944536;28;20720;-84
2023/09/18 03:04:52;;;;;;;2.30;0.85;;;12.60;99.90;;;;;;4943779;28;20199;-84
2023/09/18 03:07:20;;;;;;;1.48;0.90;;;12.70;99.90;;;;;;4937247;28;20298;-86
2023/09/18 03:09:48;;;;;;;1.70;0.60;;;12.40;99.90;;;;;;4952375;28;20242;-83
2023/09/18 03:12:16;;;;;;;1.38;0.70;;;12.20;99.90;;;;;;4923836;29;20718;-85
2023/09/18 03:14:46;;;;;;;1.02;0.73;;;12.20;99.90;;;;;;4953980;28;20213;-85
2023/09/18 03:17:14;;;;;;;3.25;0.70;;;12.20;99.90;;;;;;4950943;28;20279;-84
2023/09/18 03:19:42;;;;;;;5.88;0.95;;;12.10;99.90;;;;;;4944518;28;20181;-85
2023/09/18 03:22:11;;;;;;;1.40;0.85;;;12.30;99.90;;;;;;4941120;28;20212;-86
2023/09/18 03:24:38;;;;;;;1.75;0.82;;;12.30;99.90;;;;;;4943511;28;20208;-85
2023/09/18 03:27:06;;;;;;;1.13;0.70;;;12.30;99.90;;;;;;4948534;29;20300;-84
2023/09/18 03:29:34;;;;;;;0.70;0.63;;;12.30;99.90;;;;;;4946553;28;20197;-84
2023/09/18 03:32:03;;;;;;;2.42;0.80;;;12.20;99.90;;;;;;4955565;28;20212;-84
2023/09/18 03:34:30;;;;;;;2.00;0.80;;;12.00;99.90;;;;;;4947818;28;20205;-86
2023/09/18 03:36:58;;;;;;;3.00;0.80;;;12.10;99.90;;;;;;4962578;28;20191;-84
2023/09/18 03:39:25;;;;;;;1.35;0.50;;;11.90;99.90;;;;;;4947531;28;20206;-84
2023/09/18 03:41:53;;;;;;;1.67;0.70;;;12.10;99.90;;;;;;4923993;29;20289;-84
2023/09/18 03:44:21;;;;;;;2.72;0.75;;;11.90;99.90;;;;;;4925381;29;20217;-83
2023/09/18 03:46:49;;;;;;;3.53;1.15;;;11.90;99.90;;;;;;4925120;29;20288;-84
2023/09/18 03:49:16;;;;;;;1.90;0.70;;;11.80;99.90;;;;;;4908353;29;20200;-85
2023/09/18 03:51:44;;;;;;;1.83;0.70;;;11.90;99.90;;;;;;4923779;29;20217;-84
2023/09/18 03:54:12;;;;;;;2.47;0.70;;;11.80;99.90;;;;;;4905093;29;20243;-84
2023/09/18 03:56:40;;;;;;;0.93;0.60;;;11.70;99.90;;;;;;4930040;29;20197;-83
2023/09/18 03:59:08;;;;;;;5.07;0.73;;;11.80;99.90;;;;;;4923846;29;20208;-85
2023/09/18 04:01:36;;;;;;;3.92;0.60;;;11.70;99.90;;;;;;4914611;29;20198;-85
2023/09/18 04:04:04;;;;;;;0.80;0.68;;;11.70;99.90;;;;;;4924545;29;20280;-85
2023/09/18 04:06:43;;;;;;;2.72;0.90;;;11.80;99.90;;;;;;4917422;29;20688;-84
2023/09/18 04:09:11;;;;;;;5.32;0.70;;;11.80;99.90;;;;;;4928801;29;20193;-85
2023/09/18 04:11:38;;;;;;;0.80;0.60;;;11.60;99.90;;;;;;4916822;29;20198;-84
2023/09/18 04:14:06;;;;;;;3.28;0.68;;;11.80;99.90;;;;;;4924619;29;20213;-84
2023/09/18 04:16:35;;;;;;;3.17;0.73;;;11.60;99.90;;;;;;4919424;29;20200;-83
2023/09/18 04:19:03;;;;;;;1.98;0.73;;;11.40;99.90;;;;;;4910660;29;20300;-85
2023/09/18 04:21:31;;;;;;;4.72;0.98;;;11.40;99.90;;;;;;4929014;29;20685;-85
2023/09/18 04:23:58;;;;;;;3.72;0.70;;;11.50;99.90;;;;;;4927645;29;20723;-84
2023/09/18 04:26:30;;;;;;;2.72;0.60;;;11.50;99.90;;;;;;4922010;29;20206;-84
2023/09/18 04:28:58;;;;;;;1.10;0.52;;;11.50;99.90;;;;;;4925395;29;20556;-84
2023/09/18 04:31:27;;;;;;;2.63;0.60;;;11.50;99.90;;;;;;4913326;29;20224;-83
2023/09/18 04:33:56;;;;;;;1.45;0.60;;;11.50;99.90;;;;;;4926684;29;20206;-83
2023/09/18 04:36:24;;;;;;;3.08;0.57;;;11.50;99.90;;;;;;4922397;29;20193;-83
2023/09/18 04:38:52;;;;;;;0.85;0.60;;;11.40;99.90;;;;;;4926444;29;20547;-82
2023/09/18 04:41:20;;;;;;;1.75;0.60;;;11.50;99.90;;;;;;4910117;29;20760;-82
2023/09/18 04:43:48;;;;;;;0.60;0.60;;;11.70;99.90;;;;;;4927331;29;20678;-83
2023/09/18 04:46:15;;;;;;;2.40;0.50;;;11.70;99.90;;;;;;4923465;29;20230;-83
2023/09/18 04:48:44;;;;;;;0.68;0.60;;;11.50;99.90;;;;;;4908069;29;20209;-83
2023/09/18 04:51:12;;;;;;;1.05;0.60;;;11.40;99.90;;;;;;4923735;29;20188;-83
2023/09/18 04:53:40;;;;;;;1.23;0.60;;;11.60;99.90;;;;;;4915252;29;20190;-83
2023/09/18 04:56:10;;;;;;;0.98;0.60;;;11.60;99.90;;;;;;4922994;29;20696;-82
2023/09/18 04:58:38;;;;;;;1.95;0.70;;;11.40;99.90;;;;;;4924552;29;20189;-82
2023/09/18 05:01:06;;;;;;;2.13;0.60;;;11.50;99.90;;;;;;4924456;29;20214;-83
2023/09/18 05:03:37;;;;;;;1.65;0.63;;;11.50;99.90;;;;;;4925371;29;20308;-83
2023/09/18 05:06:09;;;;;;;1.08;0.55;;;11.50;99.90;;;;;;4916372;29;20204;-85
2023/09/18 05:08:37;;;;;;;3.67;0.73;;;11.60;99.90;;;;;;4923113;29;20680;-86
2023/09/18 05:11:04;;;;;;;0.98;0.70;;;11.50;99.90;;;;;;4917112;29;20239;-85
2023/09/18 05:13:32;;;;;;;0.40;0.40;;;11.50;99.90;;;;;;4922157;29;20194;-83
2023/09/18 05:16:00;;;;;;;1.35;0.60;;;11.50;99.90;;;;;;4923884;29;20212;-82
2023/09/18 05:18:28;;;;;;;2.70;0.70;;;11.50;99.90;;;;;;4924538;29;20956;-86
2023/09/18 05:20:56;;;;;;;0.82;0.60;;;11.40;99.90;;;;;;4924742;29;20193;-85
2023/09/18 05:23:23;;;;;;;2.58;0.55;;;11.40;99.90;;;;;;4925010;29;20315;-83
2023/09/18 05:25:51;;;;;;;1.05;0.60;;;11.40;99.90;;;;;;4923131;29;20205;-87
2023/09/18 05:28:18;;;;;;;2.60;0.70;;;11.60;99.90;;;;;;4923553;29;20193;-84
2023/09/18 05:30:46;;;;;;;1.83;0.60;;;11.60;99.90;;;;;;4928544;29;20557;-85
2023/09/18 05:33:14;;;;;;;1.17;0.63;;;11.60;99.90;;;;;;4925121;29;20573;-85
2023/09/18 05:35:43;;;;;;;2.70;0.85;;;11.50;99.90;;;;;;4924808;29;20315;-86
2023/09/18 05:38:17;;;;;;;5.10;0.93;;;11.60;99.90;;;;;;4922445;29;20186;-87
2023/09/18 05:40:45;;;;;;;2.17;0.50;;;11.70;99.90;;;;;;4929342;29;20232;-86
2023/09/18 05:43:14;;;;;;;1.40;0.57;;;11.60;99.90;;;;;;4926401;29;20197;-85
2023/09/18 05:45:42;;;;;;;1.27;0.60;;;11.60;99.90;;;;;;4925272;29;20296;-86
2023/09/18 05:48:09;;;;;;;1.50;0.90;;;11.70;99.90;;;;;;4923365;29;20679;-85
2023/09/18 05:50:40;;;;;;;3.25;0.70;;;11.80;99.90;;;;;;4927835;29;20201;-86
2023/09/18 05:53:08;;;;;;;1.13;0.63;;;11.80;99.90;;;;;;4928331;29;20220;-86
2023/09/18 05:55:36;;;;;;;8.73;1.02;;;11.80;99.90;;;;;;4931356;29;20324;-86
2023/09/18 05:58:04;;;;;;;0.73;0.60;;;11.90;99.90;;;;;;4920975;29;20683;-84
2023/09/18 06:00:32;;;;;;;1.50;0.40;;;12.00;99.90;;;;;;4930509;29;20276;-86
2023/09/18 06:03:00;;;;;;;1.83;0.70;;;12.10;99.90;;;;;;4921435;29;20200;-83
2023/09/18 06:05:31;;;;;;;0.77;0.50;;;12.00;99.90;;;;;;4922211;29;20198;-84
2023/09/18 06:07:59;;;;;;;1.83;0.57;;;12.00;99.90;;;;;;4922401;29;20197;-85
2023/09/18 06:10:27;;;;;;;0.68;0.60;;;12.00;99.90;;;;;;4918653;29;20229;-83
2023/09/18 06:12:55;;;;;;;0.75;0.60;;;12.10;99.90;;;;;;4930070;29;20220;-84
2023/09/18 06:15:22;;;;;;;4.53;0.50;;;12.00;99.90;;;;;;4928617;29;20219;-87
2023/09/18 06:17:50;;;;;;;3.55;0.70;;;12.10;99.90;;;;;;4923358;29;20193;-85
2023/09/18 06:20:18;;;;;;;2.13;0.57;;;12.10;99.90;;;;;;4922857;29;20565;-85
2023/09/18 06:22:45;;;;;;;5.20;0.70;;;12.10;99.90;;;;;;4921716;29;20186;-85
2023/09/18 06:25:14;;;;;;;1.35;0.60;;;12.20;99.90;;;;;;4925038;29;20254;-85
2023/09/18 06:27:42;;;;;;;1.58;0.73;;;12.20;99.90;;;;;;4917402;29;20205;-84
2023/09/18 06:30:10;;;;;;;2.30;0.63;;;12.20;99.90;;;;;;4928087;29;20731;-86
2023/09/18 06:32:37;;;;;;;2.63;0.80;;;12.30;99.90;;;;;;4922849;29;20205;-84
2023/09/18 06:35:05;;;;;;;1.25;0.65;;;12.30;99.90;;;;;;4922490;29;20300;-86
2023/09/18 06:37:33;;;;;;;3.95;0.85;;;12.30;99.90;;;;;;4910037;29;20197;-86
2023/09/18 06:40:03;;;;;;;1.10;0.70;;;12.30;99.90;;;;;;4924028;29;20201;-85
2023/09/18 06:42:32;;;;;;;1.83;0.60;;;12.40;99.90;;;;;;4961785;28;20647;-84
2023/09/18 06:45:01;;;;;;;2.40;0.70;;;12.40;99.90;;;;;;4944619;28;20292;-87
2023/09/18 06:47:29;;;;;;;2.03;0.70;;;12.40;99.90;;;;;;4956774;28;20208;-87
2023/09/18 06:49:57;;;;;;;1.45;0.60;;;12.60;99.90;;;;;;4962870;28;20274;-85
2023/09/18 06:52:26;;;;;;;1.63;0.80;;;12.60;99.90;;;;;;4963271;28;20732;-84
2023/09/18 06:54:54;;;;;;;2.63;0.75;;;12.60;99.90;;;;;;4957961;28;20312;-86
2023/09/18 06:57:21;;;;;;;1.42;0.68;;;12.50;99.90;;;;;;4927456;28;20742;-87
2023/09/18 06:59:49;;;;;;;3.17;0.70;;;12.50;99.90;;;;;;4942715;29;20213;-86
2023/09/18 07:02:16;;;;;;;2.08;0.80;;;12.50;99.90;;;;;;4937829;28;20280;-85
2023/09/18 07:04:47;;;;;;;4.53;0.90;;;12.70;99.90;;;;;;4952547;28;20575;-85
2023/09/18 07:07:15;;;;;;;1.38;0.73;;;12.70;99.90;;;;;;4957634;28;20184;-87
2023/09/18 07:09:43;;;;;;;0.77;0.40;;;12.80;99.90;;;;;;4962972;28;20193;-86
2023/09/18 07:12:31;;;;;;;2.47;0.70;;;12.70;99.90;;;;;;4965078;28;20192;-86
2023/09/18 07:15:02;;;;;;;2.35;0.77;;;12.80;99.90;;;;;;4963904;28;20207;-85
2023/09/18 07:17:31;;;;;;;1.98;0.63;;;12.80;99.90;;;;;;4963236;28;20677;-85
2023/09/18 07:20:00;;;;;;;0.93;0.65;;;12.90;99.90;;;;;;4963657;28;20199;-85
2023/09/18 07:22:27;;;;;;;1.88;0.80;;;13.00;99.90;;;;;;4945988;28;20196;-84
2023/09/18 07:24:58;;;;;;;3.10;0.70;;;13.00;99.90;;;;;;4965101;28;20199;-87
2023/09/18 07:27:25;;;;;;;1.63;0.65;;;13.00;99.90;;;;;;4965605;28;20786;-88
2023/09/18 07:29:55;;;;;;;3.88;0.60;;;13.00;99.90;;;;;;4953388;28;20187;-85
2023/09/18 07:32:24;;;;;;;1.17;0.60;;;13.00;99.90;;;;;;4965652;28;20216;-86
2023/09/18 07:35:05;;;;;;;1.85;0.80;;;13.00;99.90;;;;;;4965534;28;20204;-84
2023/09/18 07:37:34;;;;;;;1.58;0.60;;;13.20;99.90;;;;;;4961052;28;20702;-86
2023/09/18 07:40:06;;;;;;;3.30;0.85;;;13.20;99.90;;;;;;4947299;28;20564;-81
2023/09/18 07:42:34;;;;;;;1.15;0.70;;;13.20;99.90;;;;;;4951363;28;20280;-84
2023/09/18 07:45:01;;;;;;;0.98;0.70;;;13.30;99.90;;;;;;4954195;28;20191;-87
2023/09/18 07:47:30;;;;;;;1.17;0.90;;;13.30;99.90;;;;;;4930938;28;20197;-84
2023/09/18 07:50:00;;;;;;;1.30;0.70;;;13.30;99.90;;;;;;4962740;28;20651;-85
2023/09/18 07:52:29;;;;;;;2.80;0.70;;;13.40;99.90;;;;;;4963769;28;20199;-83
2023/09/18 07:54:58;;;;;;;2.20;0.80;;;13.50;99.90;;;;;;4945659;29;20200;-85
2023/09/18 07:57:31;;;;;;;3.47;0.80;;;13.60;99.90;;;;;;4964578;28;20219;-86
2023/09/18 07:59:59;;;;;;;2.53;0.80;;;13.60;99.90;;;;;;4964751;28;20227;-85
2023/09/18 08:02:28;;;;;;;1.83;0.70;;;13.70;99.90;;;;;;4956006;28;20651;-84
2023/09/18 08:04:56;;;;;;;4.15;0.70;;;13.60;99.90;;;;;;4944846;28;20682;-87
2023/09/18 08:07:24;;;;;;;1.38;0.80;;;13.60;99.90;;;;;;4961620;28;20184;-84
2023/09/18 08:09:51;;;;;;;3.58;1.08;;;13.70;99.90;;;;;;4928675;29;20205;-86
2023/09/18 08:12:19;;;;;;;1.52;1.10;;;13.70;99.90;;;;;;4962277;28;20188;-87
2023/09/18 08:14:46;;;;;;;6.35;1.20;;;13.80;99.90;;;;;;4961133;28;20671;-85
2023/09/18 08:17:14;;;;;;;1.88;0.90;;;13.90;99.90;;;;;;4944965;28;20239;-86
2023/09/18 08:19:44;;;;;;;1.10;0.80;;;13.90;99.90;;;;;;4962100;28;20189;-84
2023/09/18 08:22:15;;;;;;;2.53;0.98;;;13.90;99.90;;;;;;4963118;28;20192;-86
2023/09/18 08:24:43;;;;;;;3.20;0.98;;;14.00;99.90;;;;;;4961653;28;20196;-86
2023/09/18 08:27:11;;;;;;;1.92;1.00;;;14.00;99.90;;;;;;4935761;29;20299;-84
2023/09/18 08:29:39;;;;;;;3.10;1.13;;;14.20;99.90;;;;;;4928680;29;20196;-85
2023/09/18 08:32:07;;;;;;;2.92;1.13;;;14.30;99.90;;;;;;4963412;28;20267;-85
2023/09/18 08:34:34;;;;;;;3.15;0.88;;;14.30;99.90;;;;;;4962068;28;20203;-86
2023/09/18 08:37:05;;;;;;;5.07;1.40;;;14.40;99.90;;;;;;4938025;29;20239;-90
2023/09/18 08:39:33;;;;;;;1.23;0.95;;;14.40;99.90;;;;;;4958356;28;20195;-83
2023/09/18 08:42:05;;;;;;;3.17;1.00;;;14.40;99.90;;;;;;4957270;28;20232;-85
2023/09/18 08:44:38;;;;;;;1.95;1.10;;;14.60;99.90;;;;;;4968646;28;20259;-86
2023/09/18 08:47:10;;;;;;;1.60;0.95;;;14.70;99.90;;;;;;4965955;28;20193;-85
2023/09/18 08:49:39;;;;;;;2.50;1.10;;;14.70;99.90;;;;;;4961756;28;20188;-84
2023/09/18 08:52:08;;;;;;;5.28;1.15;;;14.70;99.90;;;;;;4960778;28;20201;-85
2023/09/18 08:54:35;;;;;;;1.80;0.90;;;14.80;99.90;;;;;;4962601;28;20450;-86
2023/09/18 08:57:07;;;;;;;3.03;1.02;;;14.80;99.90;;;;;;4961965;28;20212;-86
2023/09/18 08:59:36;;;;;;;2.25;1.10;;;14.80;99.90;;;;;;4960708;28;20192;-86
2023/09/18 09:02:04;;;;;;;1.25;0.95;;;14.90;99.90;;;;;;4953950;28;20192;-83
2023/09/18 09:04:32;;;;;;;1.55;1.00;;;15.10;99.90;;;;;;4961594;28;20189;-83
2023/09/18 09:06:59;;;;;;;3.65;1.33;;;15.10;99.90;;;;;;4962332;28;20188;-83
2023/09/18 09:09:28;;;;;;;2.38;1.23;;;15.20;99.90;;;;;;4963567;28;20215;-86
2023/09/18 09:11:55;;;;;;;2.33;1.30;;;15.00;99.90;;;;;;4958528;28;20188;-86
2023/09/18 09:14:28;;;;;;;4.03;1.40;;;15.00;99.90;;;;;;4958877;28;20188;-86
2023/09/18 09:16:59;;;;;;;3.00;1.60;;;15.30;99.90;;;;;;4959382;28;20774;-85
2023/09/18 09:19:38;;;;;;;4.03;1.60;;;15.60;99.90;;;;;;4959309;28;20235;-85
2023/09/18 09:22:07;;;;;;;4.55;1.65;;;15.50;99.90;;;;;;4959387;28;20192;-85
2023/09/18 09:24:42;;;;;;;3.05;1.60;;;15.50;99.90;;;;;;4963425;28;20227;-86
2023/09/18 09:27:10;;;;;;;1.92;1.40;;;15.60;99.90;;;;;;4955163;28;20245;-86
2023/09/18 09:29:38;;;;;;;3.35;1.55;;;15.50;99.90;;;;;;4953155;28;20188;-84
2023/09/18 09:32:19;;;;;;;3.47;1.67;;;15.30;99.90;;;;;;4965633;28;20195;-84
2023/09/18 09:34:47;;;;;;;4.00;1.77;;;15.30;99.90;;;;;;4961347;28;20722;-85
2023/09/18 09:37:15;;;;;;;3.53;1.80;;;15.20;99.90;;;;;;4936988;28;20616;-86
2023/09/18 09:39:52;;;;;;;3.53;1.95;;;15.20;99.90;;;;;;4953379;28;20196;-87
2023/09/18 09:42:28;;;;;;;4.70;2.38;;;15.20;99.90;;;;;;4965135;28;20226;-85
2023/09/18 09:45:03;;;;;;;4.50;2.20;;;15.20;99.90;;;;;;4950122;29;20220;-86
2023/09/18 09:47:36;;;;;;;3.95;2.15;;;15.20;99.90;;;;;;4961604;28;20198;-86
2023/09/18 09:50:13;;;;;;;4.07;2.33;;;15.20;99.90;;;;;;4945281;28;20199;-84
2023/09/18 09:52:43;;;;;;;3.97;2.05;;;15.20;99.90;;;;;;4960665;28;20222;-86
2023/09/18 09:55:29;;;;;;;3.20;2.10;;;15.20;99.90;;;;;;4956073;28;20203;-85
2023/09/18 09:58:02;;;;;;;5.70;2.60;;;15.20;99.90;;;;;;4962547;28;20219;-86
2023/09/18 10:00:49;;;;;;;3.55;2.25;;;15.30;99.90;;;;;;4961672;28;20188;-86
2023/09/18 10:03:20;;;;;;;3.83;2.42;;;15.30;99.90;;;;;;4953049;28;20181;-85
2023/09/18 10:05:53;;;;;;;3.42;2.20;;;15.40;99.90;;;;;;4950757;28;20204;-86
2023/09/18 10:08:26;;;;;;;5.60;2.50;;;15.50;99.90;;;;;;4952432;28;20614;-87
2023/09/18 10:11:06;;;;;;;4.72;2.78;;;15.60;99.90;;;;;;4948917;29;20220;-85
2023/09/18 10:13:51;;;;;;;3.38;2.30;;;15.80;99.90;;;;;;4961264;28;20550;-85
2023/09/18 10:16:28;;;;;;;5.38;2.53;;;16.10;99.90;;;;;;4960588;28;20720;-87
2023/09/18 10:19:21;;;;;;;5.93;2.88;;;16.00;99.90;;;;;;4948494;28;20191;-84
2023/09/18 10:22:20;;;;;;;5.50;2.53;;;15.90;99.90;;;;;;4946776;28;20291;-86
2023/09/18 10:24:50;;;;;;;5.20;2.78;;;15.80;99.90;;;;;;4958219;28;20295;-86
2023/09/18 10:27:21;;;;;;;5.70;2.60;;;15.90;99.90;;;;;;4962207;28;20267;-86
2023/09/18 10:29:52;;;;;;;4.78;2.20;;;16.20;99.90;;;;;;4960594;28;20202;-86
2023/09/18 10:32:21;;;;;;;6.95;2.72;;;16.30;99.90;;;;;;4961128;28;20211;-85
2023/09/18 10:34:50;;;;;;;5.30;2.78;;;16.30;99.90;;;;;;4960260;28;20236;-87
2023/09/18 10:37:18;;;;;;;5.25;2.65;;;16.40;99.90;;;;;;4961319;28;20228;-86
2023/09/18 10:39:49;;;;;;;6.65;2.95;;;16.40;99.90;;;;;;4955004;28;20204;-87
2023/09/18 10:42:18;;;;;;;5.88;2.85;;;16.40;99.90;;;;;;4963933;28;20224;-86
2023/09/18 10:44:46;;;;;;;4.85;2.33;;;16.30;99.90;;;;;;4963363;28;20643;-87
2023/09/18 10:47:14;;;;;;;4.85;2.70;;;16.40;99.90;;;;;;4964929;28;20203;-85
2023/09/18 10:49:42;;;;;;;5.65;3.33;;;16.40;99.90;;;;;;4931792;29;20184;-85
2023/09/18 10:52:14;;;;;;;4.78;2.35;;;16.40;99.90;;;;;;4956945;28;20196;-84
2023/09/18 10:54:41;;;;;;;6.03;2.85;;;16.70;99.90;;;;;;4961935;28;20183;-84
2023/09/18 10:57:09;;;;;;;4.70;2.83;;;16.70;99.90;;;;;;4965948;28;20207;-85
2023/09/18 10:59:47;;;;;;;5.65;2.67;;;16.80;99.90;;;;;;4964876;28;20188;-87
2023/09/18 11:02:16;;;;;;;5.32;3.30;;;16.90;99.90;;;;;;4963542;28;20275;-87
2023/09/18 11:04:45;;;;;;;3.83;2.58;;;16.90;99.90;;;;;;4945899;28;20211;-86
2023/09/18 11:07:22;;;;;;;7.68;2.90;;;17.10;99.90;;;;;;4942248;28;20734;-84
2023/09/18 11:09:50;;;;;;;4.38;2.65;;;17.10;99.90;;;;;;4963439;28;20512;-87
2023/09/18 11:12:18;;;;;;;6.15;2.90;;;17.30;99.90;;;;;;4946772;28;20202;-85
2023/09/18 11:14:54;;;;;;;8.35;3.00;;;17.40;99.90;;;;;;4945873;28;20184;-86
2023/09/18 11:17:38;;;;;;;8.07;3.53;;;17.30;99.90;;;;;;4946224;28;20270;-86
2023/09/18 11:20:17;;;;;;;9.50;3.05;;;17.50;99.90;;;;;;4956351;28;20674;-86
2023/09/18 11:22:51;;;;;;;8.73;3.40;;;17.60;99.90;;;;;;4946500;28;20188;-87
2023/09/18 11:25:40;;;;;;;6.97;2.95;;;17.70;99.90;;;;;;4963670;28;20215;-82
2023/09/18 11:28:12;;;;;;;7.07;2.88;;;17.60;99.90;;;;;;4961936;28;20220;-85
2023/09/18 11:30:50;;;;;;;4.30;2.95;;;17.70;99.90;;;;;;4964545;28;20670;-86
2023/09/18 11:33:31;;;;;;;5.28;2.58;;;17.70;99.90;;;;;;4958007;28;20279;-85
2023/09/18 11:36:32;;;;;;;4.47;2.70;;;17.60;99.90;;;;;;4963544;28;20207;-85
2023/09/18 11:39:04;;;;;;;6.95;3.58;;;17.30;99.90;;;;;;4963362;28;20261;-87
2023/09/18 11:41:39;;;;;;;4.68;2.88;;;17.10;99.90;;;;;;4965503;28;20711;-85
2023/09/18 11:44:19;;;;;;;7.50;3.38;;;16.90;99.90;;;;;;4952850;28;20196;-84
2023/09/18 11:46:52;;;;;;;5.57;3.22;;;17.00;99.90;;;;;;4961297;28;20211;-86
2023/09/18 11:49:27;;;;;;;7.60;3.10;;;17.10;99.90;;;;;;4966309;28;20199;-86
2023/09/18 11:51:59;;;;;;;5.28;3.30;;;17.00;99.90;;;;;;4964616;28;20191;-86
2023/09/18 11:54:29;;;;;;;6.32;3.22;;;16.90;99.90;;;;;;4954757;28;20212;-87
2023/09/18 11:56:57;;;;;;;8.77;3.35;;;16.90;99.90;;;;;;4963696;28;20247;-85
2023/09/18 11:59:46;;;;;;;6.25;3.28;;;16.80;99.90;;;;;;4963736;28;20217;-86
2023/09/18 12:02:45;;;;;;;7.90;3.63;;;16.80;99.90;;;;;;4964834;28;20192;-85
2023/09/18 12:05:17;;;;;;;6.43;3.47;;;16.80;99.90;;;;;;4950039;28;20196;-86
2023/09/18 12:07:46;;;;;;;7.13;3.42;;;16.60;99.90;;;;;;4962751;28;20671;-86
2023/09/18 12:10:20;;;;;;;7.30;3.40;;;16.60;99.90;;;;;;4960452;28;20279;-85
2023/09/18 12:12:48;;;;;;;1999.90;999.90;;;16.60;99.90;;;;;;4947971;28;20215;-85
2023/09/18 12:15:19;;;;;;;6.75;3.08;;;16.50;99.90;;;;;;4964229;28;20207;-85
2023/09/18 12:17:47;;;;;;;5.32;3.17;;;16.40;99.90;;;;;;4947873;29;20316;-87
2023/09/18 12:20:19;;;;;;;5.57;3.47;;;16.50;99.90;;;;;;4950237;29;20410;-84
2023/09/18 12:22:48;;;;;;;7.68;3.25;;;16.50;99.90;;;;;;4964297;28;20283;-87
2023/09/18 12:25:18;;;;;;;5.82;3.78;;;16.40;99.90;;;;;;4959053;28;20251;-86
2023/09/18 12:27:46;;;;;;;6.47;4.00;;;16.30;99.90;;;;;;4945998;28;20219;-85
2023/09/18 12:30:20;;;;;;;8.40;4.03;;;16.30;99.90;;;;;;4937004;28;20199;-86
2023/09/18 12:32:50;;;;;;;7.10;3.88;;;16.20;99.90;;;;;;4966726;28;20195;-86
2023/09/18 12:35:21;;;;;;;7.15;4.47;;;16.30;99.90;;;;;;4953261;29;20630;-85
2023/09/18 12:37:49;;;;;;;6.10;3.53;;;16.20;99.90;;;;;;4964446;28;20255;-87
2023/09/18 12:40:25;;;;;;;6.07;3.85;;;16.20;99.90;;;;;;4946393;28;20890;-85
2023/09/18 12:43:01;;;;;;;6.72;3.85;;;16.20;99.90;;;;;;4958639;28;20197;-87
2023/09/18 12:45:29;;;;;;;7.72;4.03;;;16.10;99.90;;;;;;4960707;28;20531;-86
2023/09/18 12:47:58;;;;;;;8.00;3.67;;;16.20;99.90;;;;;;4966249;28;20227;-86
2023/09/18 12:50:26;;;;;;;6.70;3.85;;;16.30;99.90;;;;;;4954967;28;20270;-86
2023/09/18 12:53:05;;;;;;;8.25;3.60;;;16.20;99.90;;;;;;4940208;28;20211;-86
2023/09/18 12:55:33;;;;;;;5.03;3.30;;;16.10;99.90;;;;;;4965141;28;20192;-85
2023/09/18 12:58:05;;;;;;;5.22;3.60;;;16.20;99.90;;;;;;4959499;28;20216;-88
2023/09/18 13:00:34;;;;;;;8.10;3.83;;;16.10;99.90;;;;;;4944277;28;20601;-87